Walnut Grove, Minnesota
Current Conditions -  °F | °C
As of 9:53 PM on Sunday 23 Nov 2014 (Local Time) from KTKC Reporting Station
Overcast Overcast  
Wind Chill: 16°   Ceiling: 1800
Heat Index: 29°   Visibility: 10mi
Dew Point: 24°   Wind: 22mph
Humidity: 80%   Direction: 320°NW
Pressure: 29.48"   Gusts: 31mph
Location:  44.22°N, 95.47°W
Report Text: KTKC 240353Z AUTO 32019G27KT 10SM OVC018 M01/M05 A2948 RMK AO2 T10151046
Loading
Personal Weather Stations






























Interactive Weather Map New forecast layout! Learn more

10-Day Weather Forecast

Advertisements
Track Severe Weather on mobile